Time;durP1;ratioP1;P1;durP2;ratioP2;P2;SDS_P1;SDS_P2;PMS_P1;PMS_P2;Temp;Humidity;BMP_temperature;BMP_pressure;BME280_temperature;BME280_humidity;BME280_pressure;Samples;Min_cycle;Max_cycle;Signal;HPM_P1;HPM_P2
2022/08/26 00:01:54;;;;;;;11.50;3.83;;;;;;;;;;4972468;28;89948;-75
2022/08/26 00:04:22;;;;;;;11.45;4.35;;;;;;;;;;4974038;28;90457;-75
2022/08/26 00:06:49;;;;;;;13.05;4.60;;;;;;;;;;4978603;28;89037;-75
2022/08/26 00:09:15;;;;;;;9.50;4.00;;;;;;;;;;4971374;28;90478;-76
2022/08/26 00:11:43;;;;;;;9.63;4.00;;;;;;;;;;4971037;28;89359;-74
2022/08/26 00:14:09;;;;;;;11.70;3.65;;;;;;;;;;4968636;28;89931;-75
2022/08/26 00:16:36;;;;;;;9.52;4.00;;;;;;;;;;4972252;28;89121;-76
2022/08/26 00:19:06;;;;;;;8.45;3.67;;;;;;;;;;4973056;28;89508;-74
2022/08/26 00:21:33;;;;;;;7.97;3.58;;;;;;;;;;4974328;28;89590;-76
2022/08/26 00:24:00;;;;;;;11.90;4.20;;;;;;;;;;4973401;28;90008;-75
2022/08/26 00:26:26;;;;;;;12.90;3.80;;;;;;;;;;4969762;28;87985;-75
2022/08/26 00:28:54;;;;;;;11.05;4.10;;;;;;;;;;4974192;28;89168;-74
2022/08/26 00:31:20;;;;;;;11.50;3.92;;;;;;;;;;4970144;28;89099;-75
2022/08/26 00:33:47;;;;;;;10.25;3.70;;;;;;;;;;4971254;28;90147;-75
2022/08/26 00:36:15;;;;;;;10.73;3.83;;;;;;;;;;4972191;28;90020;-75
2022/08/26 00:38:46;;;;;;;16.77;3.80;;;;;;;;;;4969890;28;89413;-75
2022/08/26 00:41:12;;;;;;;10.25;3.40;;;;;;;;;;4971215;28;89650;-75
2022/08/26 00:43:39;;;;;;;11.73;3.35;;;;;;;;;;4970878;28;90007;-75
2022/08/26 00:46:15;;;;;;;9.70;3.38;;;;;;;;;;4970230;28;89017;-75
2022/08/26 00:48:42;;;;;;;10.50;3.28;;;;;;;;;;4973257;28;89892;-75
2022/08/26 00:51:18;;;;;;;7.80;2.85;;;;;;;;;;4978023;28;89333;-75
2022/08/26 00:53:49;;;;;;;8.32;2.97;;;;;;;;;;4969909;28;89816;-74
2022/08/26 00:56:26;;;;;;;9.75;2.92;;;;;;;;;;4970679;28;90017;-74
2022/08/26 00:58:53;;;;;;;8.02;2.90;;;;;;;;;;4972098;28;89073;-74
2022/08/26 01:01:19;;;;;;;5.53;2.60;;;;;;;;;;4975313;28;90542;-73
2022/08/26 01:03:48;;;;;;;8.93;2.72;;;;;;;;;;4965818;28;90000;-74
2022/08/26 01:06:15;;;;;;;9.80;2.58;;;;;;;;;;4974515;28;89095;-75
2022/08/26 01:08:42;;;;;;;8.23;3.28;;;;;;;;;;4972402;28;89991;-73
2022/08/26 01:11:08;;;;;;;15.10;2.83;;;;;;;;;;4969283;28;89814;-75
2022/08/26 01:13:35;;;;;;;9.90;2.85;;;;;;;;;;4972391;28;88986;-75
2022/08/26 01:16:03;;;;;;;6.65;2.63;;;;;;;;;;4970203;28;89192;-75
2022/08/26 01:18:30;;;;;;;6.03;2.60;;;;;;;;;;4975001;28;89222;-76
2022/08/26 01:21:15;;;;;;;8.93;2.50;;;;;;;;;;4974406;28;90016;-75
2022/08/26 01:23:45;;;;;;;7.13;2.47;;;;;;;;;;4973698;28;91254;-75
2022/08/26 01:26:14;;;;;;;9.98;2.85;;;;;;;;;;4969697;28;90199;-75
2022/08/26 01:28:45;;;;;;;6.40;2.63;;;;;;;;;;4972111;28;89863;-75
2022/08/26 01:31:20;;;;;;;6.07;2.30;;;;;;;;;;4969703;28;88939;-75
2022/08/26 01:33:50;;;;;;;9.32;2.08;;;;;;;;;;4973037;28;89355;-75
2022/08/26 01:36:17;;;;;;;7.32;2.10;;;;;;;;;;4970142;28;91201;-75
2022/08/26 01:38:45;;;;;;;9.90;2.25;;;;;;;;;;4972214;28;89165;-75
2022/08/26 01:41:13;;;;;;;8.95;2.10;;;;;;;;;;4970287;28;89800;-76
2022/08/26 01:43:46;;;;;;;5.10;2.05;;;;;;;;;;4969586;28;89981;-75
2022/08/26 01:46:14;;;;;;;7.88;2.80;;;;;;;;;;4967638;28;88392;-75
2022/08/26 01:48:42;;;;;;;7.65;2.00;;;;;;;;;;4972028;28;89813;-75
2022/08/26 01:51:09;;;;;;;10.35;2.22;;;;;;;;;;4971633;28;90106;-74
2022/08/26 01:53:37;;;;;;;8.73;2.22;;;;;;;;;;4972338;28;89433;-74
2022/08/26 01:56:07;;;;;;;11.30;2.42;;;;;;;;;;4972821;28;90126;-75
2022/08/26 01:58:37;;;;;;;8.52;2.13;;;;;;;;;;4971186;28;89002;-74
2022/08/26 02:01:04;;;;;;;8.45;2.30;;;;;;;;;;4968821;28;90264;-74
2022/08/26 02:03:31;;;;;;;7.70;2.10;;;;;;;;;;4968401;28;89398;-74
2022/08/26 02:06:02;;;;;;;11.38;2.17;;;;;;;;;;4970208;28;88094;-74
2022/08/26 02:08:31;;;;;;;12.40;2.22;;;;;;;;;;4973812;28;88467;-74
2022/08/26 02:10:58;;;;;;;10.25;2.03;;;;;;;;;;4970015;28;90063;-74
2022/08/26 02:13:26;;;;;;;6.40;1.90;;;;;;;;;;4970372;28;88937;-75
2022/08/26 02:15:53;;;;;;;8.45;2.10;;;;;;;;;;4967245;28;90657;-74
2022/08/26 02:18:19;;;;;;;5.00;1.70;;;;;;;;;;4975022;28;90347;-74
2022/08/26 02:20:48;;;;;;;6.90;1.83;;;;;;;;;;4970566;28;89732;-74
2022/08/26 02:23:16;;;;;;;12.80;2.10;;;;;;;;;;4972929;28;90141;-74
2022/08/26 02:25:49;;;;;;;7.95;2.47;;;;;;;;;;4969522;28;88335;-75
2022/08/26 02:28:16;;;;;;;9.82;1.92;;;;;;;;;;4971102;28;89925;-74
2022/08/26 02:30:45;;;;;;;6.57;1.60;;;;;;;;;;4969728;28;88667;-74
2022/08/26 02:33:12;;;;;;;8.90;2.22;;;;;;;;;;4969815;28;88896;-75
2022/08/26 02:35:38;;;;;;;11.75;2.15;;;;;;;;;;4970745;28;89946;-74
2022/08/26 02:38:06;;;;;;;11.82;2.38;;;;;;;;;;4968832;28;90472;-73
2022/08/26 02:40:39;;;;;;;8.68;1.95;;;;;;;;;;4973246;28;89144;-76
2022/08/26 02:43:06;;;;;;;7.88;1.70;;;;;;;;;;4969789;28;90160;-75
2022/08/26 02:45:34;;;;;;;8.18;1.88;;;;;;;;;;4970299;28;89700;-74
2022/08/26 02:48:05;;;;;;;10.13;1.70;;;;;;;;;;4969202;28;89743;-75
2022/08/26 02:50:33;;;;;;;6.38;1.35;;;;;;;;;;4971787;28;89873;-75
2022/08/26 02:53:00;;;;;;;9.27;1.60;;;;;;;;;;4968258;28;89230;-75
2022/08/26 02:55:27;;;;;;;8.98;1.90;;;;;;;;;;4971198;28;89942;-75
2022/08/26 02:57:54;;;;;;;9.57;2.47;;;;;;;;;;4967923;28;89992;-75
2022/08/26 03:00:21;;;;;;;6.00;1.60;;;;;;;;;;4970054;28;89003;-75
2022/08/26 03:02:49;;;;;;;7.90;1.45;;;;;;;;;;4972120;28;90202;-75
2022/08/26 03:05:16;;;;;;;9.18;1.98;;;;;;;;;;4970737;28;88922;-75
2022/08/26 03:07:43;;;;;;;6.88;1.67;;;;;;;;;;4972762;28;90365;-75
2022/08/26 03:10:11;;;;;;;8.52;2.13;;;;;;;;;;4970068;28;90360;-75
2022/08/26 03:12:38;;;;;;;9.50;1.67;;;;;;;;;;4967757;28;89100;-75
2022/08/26 03:15:06;;;;;;;6.70;1.60;;;;;;;;;;4968853;28;90221;-75
2022/08/26 03:17:44;;;;;;;10.55;2.05;;;;;;;;;;4970545;28;90056;-75
2022/08/26 03:20:10;;;;;;;4.53;1.40;;;;;;;;;;4973394;28;89069;-74
2022/08/26 03:22:38;;;;;;;8.93;2.08;;;;;;;;;;4970884;28;89214;-74
2022/08/26 03:25:06;;;;;;;8.40;1.70;;;;;;;;;;4977142;28;89737;-75
2022/08/26 03:27:32;;;;;;;7.65;1.90;;;;;;;;;;4976808;28;89430;-73
2022/08/26 03:32:45;;;;;;;9.13;1.75;;;;;;;;;;4973875;28;88948;-75
2022/08/26 03:35:11;;;;;;;7.55;1.65;;;;;;;;;;4971665;28;89964;-75
2022/08/26 03:37:39;;;;;;;6.05;1.60;;;;;;;;;;4973937;28;90255;-75
2022/08/26 03:40:09;;;;;;;5.65;1.73;;;;;;;;;;4973964;28;89174;-75
2022/08/26 03:42:37;;;;;;;7.10;1.75;;;;;;;;;;4971939;28;89922;-75
2022/08/26 03:45:04;;;;;;;8.18;1.95;;;;;;;;;;4960038;28;89011;-76
2022/08/26 03:47:31;;;;;;;7.57;1.63;;;;;;;;;;4959982;28;89095;-75
2022/08/26 03:49:58;;;;;;;13.30;1.92;;;;;;;;;;4961860;28;89586;-75
2022/08/26 03:52:24;;;;;;;7.68;1.73;;;;;;;;;;4973307;28;89001;-75
2022/08/26 03:54:52;;;;;;;5.75;1.52;;;;;;;;;;4973197;28;90799;-75
2022/08/26 03:57:18;;;;;;;17.73;2.40;;;;;;;;;;4972171;28;92151;-75
2022/08/26 03:59:44;;;;;;;9.45;1.50;;;;;;;;;;4971836;28;89066;-75
2022/08/26 04:02:11;;;;;;;5.90;1.70;;;;;;;;;;4975563;28;90302;-75
2022/08/26 04:04:39;;;;;;;6.70;1.65;;;;;;;;;;4972001;28;90093;-75
2022/08/26 04:07:05;;;;;;;9.18;1.73;;;;;;;;;;4978559;28;89621;-75
2022/08/26 04:09:33;;;;;;;10.40;2.13;;;;;;;;;;4973734;28;89649;-76
2022/08/26 04:12:02;;;;;;;5.50;1.55;;;;;;;;;;4972993;28;89635;-76
2022/08/26 04:14:29;;;;;;;5.60;1.55;;;;;;;;;;4971506;28;89712;-75
2022/08/26 04:16:57;;;;;;;6.78;1.90;;;;;;;;;;4971387;28;91167;-75
2022/08/26 04:19:24;;;;;;;9.52;1.60;;;;;;;;;;4974182;28;89783;-75
2022/08/26 04:21:54;;;;;;;6.07;1.52;;;;;;;;;;4972757;28;90164;-75
2022/08/26 04:24:21;;;;;;;9.07;1.92;;;;;;;;;;4973247;28;89974;-75
2022/08/26 04:26:48;;;;;;;5.15;1.30;;;;;;;;;;4972973;28;88962;-76
2022/08/26 04:29:17;;;;;;;5.63;1.33;;;;;;;;;;4973901;28;89671;-75
2022/08/26 04:31:43;;;;;;;7.40;1.58;;;;;;;;;;4973313;28;88242;-75
2022/08/26 04:34:09;;;;;;;4.53;1.40;;;;;;;;;;4970021;28;90403;-76
2022/08/26 04:36:36;;;;;;;8.82;1.55;;;;;;;;;;4970692;28;90213;-75
2022/08/26 04:39:04;;;;;;;12.43;1.70;;;;;;;;;;4967020;28;89055;-75
2022/08/26 18:59:34;;;;;;;11.82;2.20;;;;;;;;;;5026491;27;87709;-76
2022/08/26 19:02:00;;;;;;;6.55;1.55;;;;;;;;;;5025235;28;87610;-76
2022/08/26 19:04:27;;;;;;;6.28;1.77;;;;;;;;;;5022722;27;88458;-75
2022/08/26 19:06:53;;;;;;;7.97;1.83;;;;;;;;;;5028083;27;87276;-75
2022/08/26 19:09:20;;;;;;;5.68;1.90;;;;;;;;;;5028707;28;89034;-75
2022/08/26 19:11:48;;;;;;;8.35;2.15;;;;;;;;;;5013613;28;88385;-76
2022/08/26 19:14:16;;;;;;;6.57;2.08;;;;;;;;;;5026968;27;89032;-75
2022/08/26 19:16:44;;;;;;;7.18;2.05;;;;;;;;;;5026684;27;89190;-75
2022/08/26 19:19:13;;;;;;;9.70;1.90;;;;;;;;;;5029223;27;89250;-75
2022/08/26 19:21:39;;;;;;;7.97;1.83;;;;;;;;;;5024096;27;89135;-75
2022/08/26 19:24:11;;;;;;;10.27;2.03;;;;;;;;;;5026705;28;88801;-75
2022/08/26 19:26:37;;;;;;;5.53;1.70;;;;;;;;;;5025361;27;88691;-76
2022/08/26 19:29:04;;;;;;;11.63;2.00;;;;;;;;;;5026479;27;87761;-76
2022/08/26 19:31:30;;;;;;;5.72;2.00;;;;;;;;;;5023842;27;88475;-75
2022/08/26 19:33:57;;;;;;;7.22;2.08;;;;;;;;;;5026292;28;88246;-75
2022/08/26 19:36:24;;;;;;;8.95;1.90;;;;;;;;;;5025876;27;88902;-75
2022/08/26 19:38:51;;;;;;;6.05;2.00;;;;;;;;;;5026673;27;88251;-75
2022/08/26 19:41:19;;;;;;;4.45;1.60;;;;;;;;;;5019532;27;88875;-75
2022/08/26 19:43:45;;;;;;;6.07;1.85;;;;;;;;;;5020514;28;87959;-76
2022/08/26 19:46:13;;;;;;;6.88;1.80;;;;;;;;;;5007239;28;88614;-76
2022/08/26 19:48:43;;;;;;;6.03;1.77;;;;;;;;;;5025778;27;89068;-76
2022/08/26 19:51:18;;;;;;;4.72;1.70;;;;;;;;;;5025429;27;87783;-76
2022/08/26 19:53:45;;;;;;;3.83;1.63;;;;;;;;;;5026898;27;88368;-74
2022/08/26 19:56:12;;;;;;;6.78;1.67;;;;;;;;;;5017515;28;88788;-74
2022/08/26 19:58:39;;;;;;;5.70;1.80;;;;;;;;;;5026655;28;88309;-76
2022/08/26 20:01:05;;;;;;;8.40;2.05;;;;;;;;;;5019015;27;88851;-76
2022/08/26 20:03:32;;;;;;;7.72;2.00;;;;;;;;;;5024428;27;89175;-76
2022/08/26 20:05:59;;;;;;;7.00;1.98;;;;;;;;;;5026708;27;88312;-75
2022/08/26 20:08:25;;;;;;;6.85;2.05;;;;;;;;;;5009037;28;89106;-76
2022/08/26 20:10:52;;;;;;;8.10;1.98;;;;;;;;;;5010825;27;88003;-76
2022/08/26 20:13:20;;;;;;;5.63;2.00;;;;;;;;;;5014008;28;88516;-76
2022/08/26 20:15:47;;;;;;;6.60;2.22;;;;;;;;;;5010002;28;90040;-76
2022/08/26 20:23:43;;;;;;;7.28;1.83;;;;;;;;;;5009389;28;88991;-76
2022/08/26 20:26:09;;;;;;;8.90;2.00;;;;;;;;;;5012820;28;88842;-75
2022/08/26 20:28:36;;;;;;;4.65;1.85;;;;;;;;;;5014506;27;88841;-75
2022/08/26 20:31:02;;;;;;;6.25;2.40;;;;;;;;;;5010932;28;87796;-76
2022/08/26 20:33:29;;;;;;;6.70;2.15;;;;;;;;;;5011897;28;88647;-76
2022/08/26 20:36:11;;;;;;;;;;;;;;;;;;5016392;28;88212;-76
2022/08/26 20:38:37;;;;;;;6.28;1.90;;;;;;;;;;5012192;28;117044;-75
2022/08/26 20:41:03;;;;;;;4.75;2.13;;;;;;;;;;5009901;28;88850;-75
2022/08/26 20:43:30;;;;;;;5.68;1.60;;;;;;;;;;5009300;28;87531;-77
2022/08/26 20:45:56;;;;;;;5.22;1.80;;;;;;;;;;5013606;28;88264;-76
2022/08/26 20:48:22;;;;;;;4.90;2.10;;;;;;;;;;5016917;28;88557;-76
2022/08/26 20:50:48;;;;;;;3.75;1.95;;;;;;;;;;5012478;28;88265;-76
2022/08/26 20:53:15;;;;;;;7.45;1.83;;;;;;;;;;5014513;28;88615;-75
2022/08/26 20:55:41;;;;;;;7.20;2.00;;;;;;;;;;5014363;28;88819;-75
2022/08/26 20:58:07;;;;;;;6.97;2.10;;;;;;;;;;5007574;28;89206;-75
2022/08/26 21:00:36;;;;;;;6.25;2.22;;;;;;;;;;5011224;28;87781;-76
2022/08/26 21:03:02;;;;;;;6.63;1.90;;;;;;;;;;5013305;28;89202;-76
2022/08/26 21:05:29;;;;;;;9.20;2.20;;;;;;;;;;5013284;28;88215;-76
2022/08/26 21:07:55;;;;;;;5.82;2.15;;;;;;;;;;5011334;28;88267;-75
2022/08/26 21:10:21;;;;;;;5.07;1.77;;;;;;;;;;5014771;28;88510;-76
2022/08/26 21:12:48;;;;;;;6.25;2.10;;;;;;;;;;5012869;28;88535;-76
2022/08/26 21:15:15;;;;;;;10.25;2.08;;;;;;;;;;5009919;28;89290;-75
2022/08/26 21:17:41;;;;;;;6.07;2.33;;;;;;;;;;5012874;28;88350;-75
2022/08/26 21:20:08;;;;;;;5.78;2.30;;;;;;;;;;5012687;28;88400;-76
2022/08/26 21:22:34;;;;;;;18.50;2.15;;;;;;;;;;5011659;28;89385;-76
2022/08/26 21:25:00;;;;;;;6.72;2.33;;;;;;;;;;5011490;28;87439;-75
2022/08/26 21:27:26;;;;;;;8.13;1.90;;;;;;;;;;5002796;28;88814;-76
2022/08/26 21:29:53;;;;;;;6.10;2.00;;;;;;;;;;5015019;28;88240;-75
2022/08/26 21:32:19;;;;;;;7.72;2.20;;;;;;;;;;5011851;28;88296;-76
2022/08/26 21:34:45;;;;;;;9.07;2.25;;;;;;;;;;5013064;28;88692;-76
2022/08/26 21:37:12;;;;;;;7.30;2.28;;;;;;;;;;5006057;28;86965;-76
2022/08/26 21:39:42;;;;;;;7.45;2.03;;;;;;;;;;5012166;28;89207;-76
2022/08/26 21:42:08;;;;;;;4.38;1.92;;;;;;;;;;5012917;28;88671;-75
2022/08/26 21:44:34;;;;;;;6.32;2.15;;;;;;;;;;5012724;28;88509;-76
2022/08/26 21:47:02;;;;;;;9.25;2.55;;;;;;;;;;5012053;28;88628;-76
2022/08/26 21:49:28;;;;;;;4.68;1.60;;;;;;;;;;5012337;28;89234;-75
2022/08/26 21:51:54;;;;;;;5.97;2.08;;;;;;;;;;5015740;28;88440;-75
2022/08/26 21:54:21;;;;;;;9.05;2.45;;;;;;;;;;5011333;28;89091;-75
2022/08/26 21:56:47;;;;;;;8.50;2.03;;;;;;;;;;5008307;28;88829;-75
2022/08/26 21:59:15;;;;;;;4.43;1.95;;;;;;;;;;5010588;28;88427;-75
2022/08/26 22:01:42;;;;;;;3.13;1.88;;;;;;;;;;5011053;28;87702;-75
2022/08/26 22:04:08;;;;;;;8.43;1.88;;;;;;;;;;5012110;28;88045;-75
2022/08/26 22:06:39;;;;;;;7.07;1.95;;;;;;;;;;5012432;28;88547;-75
2022/08/26 22:09:05;;;;;;;5.68;1.60;;;;;;;;;;5006390;28;89192;-75
2022/08/26 22:11:31;;;;;;;7.70;1.90;;;;;;;;;;4992960;28;87932;-76
2022/08/26 22:13:58;;;;;;;6.30;1.90;;;;;;;;;;5011450;28;88264;-75
2022/08/26 22:16:25;;;;;;;6.38;2.03;;;;;;;;;;5003437;28;87301;-75
2022/08/26 22:18:53;;;;;;;8.15;1.83;;;;;;;;;;5012533;28;88491;-75
2022/08/26 22:21:22;;;;;;;7.00;1.95;;;;;;;;;;5012708;28;87915;-75
2022/08/26 22:23:48;;;;;;;7.30;1.90;;;;;;;;;;5011443;28;88160;-75
2022/08/26 22:26:17;;;;;;;6.00;2.05;;;;;;;;;;5010693;28;88753;-75
2022/08/26 22:28:51;;;;;;;8.10;1.88;;;;;;;;;;5011926;28;88948;-75
2022/08/26 22:31:24;;;;;;;11.38;2.25;;;;;;;;;;5012104;28;87685;-75
2022/08/26 22:34:05;;;;;;;4.93;2.00;;;;;;;;;;5011812;28;88476;-75
2022/08/26 22:36:31;;;;;;;5.88;1.90;;;;;;;;;;5008138;28;88684;-75
2022/08/26 22:38:57;;;;;;;8.07;2.17;;;;;;;;;;5008982;28;88595;-74
2022/08/26 22:41:24;;;;;;;6.07;2.03;;;;;;;;;;5010399;28;88706;-76
2022/08/26 22:43:51;;;;;;;6.28;2.13;;;;;;;;;;4996987;28;88364;-76
2022/08/26 22:46:23;;;;;;;6.13;1.90;;;;;;;;;;5010532;28;88612;-75
2022/08/26 22:48:49;;;;;;;7.25;1.83;;;;;;;;;;5011683;28;89031;-75
2022/08/26 22:51:19;;;;;;;6.90;1.75;;;;;;;;;;5012025;28;88059;-76
2022/08/26 22:53:45;;;;;;;7.68;2.10;;;;;;;;;;5011452;28;88623;-75
2022/08/26 22:56:13;;;;;;;8.98;2.17;;;;;;;;;;5009554;28;87762;-76
2022/08/26 22:58:39;;;;;;;6.75;2.33;;;;;;;;;;5013311;28;88167;-76
2022/08/26 23:01:06;;;;;;;7.28;2.05;;;;;;;;;;5010192;28;89124;-75
2022/08/26 23:03:33;;;;;;;8.18;2.15;;;;;;;;;;5011095;28;88345;-76
2022/08/26 23:05:59;;;;;;;6.80;1.65;;;;;;;;;;5009677;28;89925;-75
2022/08/26 23:08:26;;;;;;;5.97;1.88;;;;;;;;;;5010005;28;89208;-75
2022/08/26 23:10:52;;;;;;;6.22;2.13;;;;;;;;;;5005458;28;89432;-75
2022/08/26 23:13:18;;;;;;;3.13;1.67;;;;;;;;;;5010802;28;90158;-75
2022/08/26 23:15:45;;;;;;;5.95;1.90;;;;;;;;;;5009945;28;90998;-76
2022/08/26 23:18:12;;;;;;;7.18;1.83;;;;;;;;;;5013157;28;90265;-75
2022/08/26 23:20:39;;;;;;;5.32;2.00;;;;;;;;;;5011337;28;89284;-75
2022/08/26 23:23:06;;;;;;;11.02;2.10;;;;;;;;;;5010363;28;89853;-75
2022/08/26 23:25:33;;;;;;;7.72;1.83;;;;;;;;;;5008770;28;90049;-75
2022/08/26 23:27:59;;;;;;;7.72;1.88;;;;;;;;;;5010664;28;88865;-75
2022/08/26 23:30:27;;;;;;;5.05;1.98;;;;;;;;;;5003917;28;89954;-76
2022/08/26 23:32:53;;;;;;;5.35;1.98;;;;;;;;;;5010810;28;88861;-75
2022/08/26 23:35:20;;;;;;;7.75;1.95;;;;;;;;;;5008382;28;89058;-75
2022/08/26 23:37:49;;;;;;;8.55;2.20;;;;;;;;;;5010128;28;88746;-76
2022/08/26 23:40:18;;;;;;;7.28;1.90;;;;;;;;;;5012369;28;89569;-76
2022/08/26 23:42:44;;;;;;;5.22;1.88;;;;;;;;;;5010134;28;90545;-76
2022/08/26 23:45:12;;;;;;;7.40;2.10;;;;;;;;;;5011525;28;88931;-76
2022/08/26 23:47:39;;;;;;;5.75;2.00;;;;;;;;;;5004811;28;88917;-76
2022/08/26 23:50:06;;;;;;;7.30;1.90;;;;;;;;;;5009858;28;89501;-75
2022/08/26 23:55:17;;;;;;;6.50;1.95;;;;;;;;;;5011681;28;88840;-75
2022/08/26 23:57:43;;;;;;;4.70;1.92;;;;;;;;;;4997691;28;90447;-75
